createdAt,value
2019-05-03T00:03:57.923Z,5.81
2019-05-03T00:09:07.102Z,7.19
2019-05-03T00:14:16.142Z,6.52
2019-05-03T00:19:25.254Z,3.89
2019-05-03T00:24:34.295Z,6.72
2019-05-03T00:29:43.415Z,5.62
2019-05-03T00:34:52.620Z,5.65
2019-05-03T00:40:02.061Z,7.21
2019-05-03T00:45:12.598Z,4.41
2019-05-03T00:50:19.717Z,6.10
2019-05-03T00:55:28.796Z,4.95
2019-05-03T01:00:37.913Z,5.86
2019-05-03T01:05:46.966Z,4.81
2019-05-03T01:10:56.118Z,8.40
2019-05-03T01:16:05.169Z,4.65
2019-05-03T01:21:14.268Z,7.12
2019-05-03T01:26:23.303Z,5.08
2019-05-03T01:31:32.453Z,4.93
2019-05-03T01:36:42.726Z,4.94
2019-05-03T01:41:51.786Z,4.78
2019-05-03T01:46:58.677Z,4.22
2019-05-03T01:52:07.895Z,5.05
2019-05-03T01:57:16.945Z,3.61
2019-05-03T02:02:26.778Z,3.53
2019-05-03T02:07:35.830Z,3.92
2019-05-03T02:12:44.957Z,4.99
2019-05-03T02:17:54.108Z,5.78
2019-05-03T02:23:03.295Z,2.90
2019-05-03T02:28:12.705Z,4.67
2019-05-03T02:33:23.183Z,3.00
2019-05-03T02:38:29.559Z,5.14
2019-05-03T02:43:38.728Z,4.05
2019-05-03T02:48:47.784Z,3.84
2019-05-03T02:53:57.307Z,3.22
2019-05-03T02:59:06.215Z,2.48
2019-05-03T03:04:15.958Z,3.23
2019-05-03T03:09:25.902Z,3.78
2019-05-03T03:14:32.528Z,3.79
2019-05-03T03:19:41.587Z,4.19
2019-05-03T03:24:50.683Z,2.60
2019-05-03T03:30:00.617Z,3.91
2019-05-03T03:35:12.494Z,4.24
2019-05-03T03:40:18.314Z,2.91
2019-05-03T03:45:27.394Z,3.27
2019-05-03T03:50:36.441Z,3.44
2019-05-03T03:55:45.927Z,2.28
2019-05-03T04:00:55.464Z,2.83
2019-05-03T04:06:05.700Z,4.43
2019-05-03T04:11:11.897Z,3.84
2019-05-03T04:16:21.219Z,4.26
2019-05-03T04:21:29.588Z,4.03
2019-05-03T04:26:38.755Z,4.90
2019-05-03T04:31:47.782Z,3.54
2019-05-03T04:36:56.896Z,4.07
2019-05-03T04:42:07.018Z,4.97
2019-05-03T04:47:15.633Z,2.63
2019-05-03T04:52:25.842Z,6.69
2019-05-03T04:57:39.580Z,6.75
2019-05-03T05:02:40.605Z,3.89
2019-05-03T05:07:49.665Z,3.43
2019-05-03T05:12:58.769Z,2.88
2019-05-03T05:18:07.819Z,3.13
2019-05-03T05:23:16.943Z,2.96
2019-05-03T05:28:26.035Z,2.68
2019-05-03T05:33:35.412Z,2.64
2019-05-03T05:38:45.063Z,3.74
2019-05-03T05:43:52.338Z,3.61
2019-05-03T05:49:01.435Z,4.11
2019-05-03T05:54:10.574Z,3.89
2019-05-03T05:59:19.614Z,2.96
2019-05-03T06:04:28.887Z,1.68
2019-05-03T06:09:38.094Z,3.50
2019-05-03T06:14:47.202Z,3.42
2019-05-03T06:19:56.269Z,3.11
2019-05-03T06:25:06.565Z,4.59
2019-05-03T06:30:14.971Z,2.94
2019-05-03T06:35:24.388Z,6.19
2019-05-03T06:40:31.650Z,3.31
2019-05-03T06:45:41.041Z,5.51
2019-05-03T06:50:49.421Z,6.39
2019-05-03T06:55:58.456Z,5.54
2019-05-03T07:01:07.580Z,4.74
2019-05-03T07:06:16.640Z,5.51
2019-05-03T07:11:26.196Z,6.74
2019-05-03T07:16:35.428Z,5.51
2019-05-03T07:21:44.729Z,6.44
2019-05-03T07:26:55.088Z,5.11
2019-05-03T07:32:02.275Z,4.80
2019-05-03T07:37:11.328Z,7.55
2019-05-03T07:42:20.452Z,7.25
2019-05-03T07:47:29.487Z,8.40
2019-05-03T07:52:38.785Z,6.46
2019-05-03T07:57:47.790Z,7.04
2019-05-03T08:02:56.924Z,5.75
2019-05-03T08:08:05.943Z,4.98
2019-05-03T08:13:15.320Z,6.47
2019-05-03T08:18:25.552Z,4.24
2019-05-03T08:23:32.250Z,5.03
2019-05-03T08:28:41.473Z,4.53
2019-05-03T08:33:50.644Z,5.72
2019-05-03T08:38:59.731Z,7.08
2019-05-03T08:44:08.881Z,5.62
2019-05-03T08:49:18.039Z,8.48
2019-05-03T08:54:27.844Z,7.59
2019-05-03T08:59:36.866Z,6.29
2019-05-03T09:04:46.397Z,6.91
2019-05-03T09:09:55.043Z,8.29
2019-05-03T09:15:04.761Z,8.23
2019-05-03T09:20:11.855Z,9.47
2019-05-03T09:25:21.052Z,6.93
2019-05-03T09:30:30.121Z,9.21
2019-05-03T09:35:39.257Z,9.08
2019-05-03T09:40:48.319Z,7.23
2019-05-03T09:45:57.479Z,7.96
2019-05-03T09:51:06.567Z,9.81
2019-05-03T09:56:15.678Z,6.07
2019-05-03T10:01:25.559Z,4.74
2019-05-03T10:06:35.856Z,6.46
2019-05-03T10:11:45.285Z,4.44
2019-05-03T10:16:50.818Z,6.87
2019-05-03T10:21:59.846Z,4.37
2019-05-03T10:27:09.477Z,4.77
2019-05-03T10:32:17.601Z,5.55
2019-05-03T10:37:27.190Z,4.22
2019-05-03T10:42:36.237Z,5.51
2019-05-03T10:47:45.729Z,5.25
2019-05-03T10:52:55.537Z,6.72
2019-05-03T10:58:05.209Z,7.63
2019-05-03T11:03:11.350Z,6.90
2019-05-03T11:08:20.453Z,6.37
2019-05-03T11:13:29.617Z,8.53
2019-05-03T11:18:38.654Z,4.09
2019-05-03T11:23:47.751Z,3.44
2019-05-03T11:29:00.488Z,3.85
2019-05-03T11:34:05.776Z,2.75
2019-05-03T11:39:14.829Z,6.29
2019-05-03T11:44:24.557Z,4.94
2019-05-03T11:49:34.500Z,7.99
2019-05-03T11:54:41.245Z,7.42
2019-05-03T11:59:50.278Z,7.45
2019-05-03T12:04:59.434Z,8.86
2019-05-03T12:10:17.104Z,9.58
2019-05-03T12:15:17.281Z,8.11
2019-05-03T12:20:28.598Z,7.11
2019-05-03T12:25:36.108Z,7.56
2019-05-03T12:30:44.932Z,9.22
2019-05-03T12:35:52.357Z,7.00
2019-05-03T12:41:01.386Z,4.18
2019-05-03T12:46:10.499Z,4.58
2019-05-03T12:51:19.816Z,3.42
2019-05-03T12:56:32.725Z,1.69
2019-05-03T13:01:41.734Z,2.27
2019-05-03T13:06:46.498Z,3.49
2019-05-03T13:11:58.737Z,2.66
2019-05-03T13:17:04.769Z,3.20
2019-05-03T13:22:13.015Z,4.37
2019-05-03T13:27:22.046Z,3.68
2019-05-03T13:32:31.172Z,3.82
2019-05-03T13:37:40.202Z,3.40
2019-05-03T13:42:57.746Z,3.63
2019-05-03T13:47:57.945Z,3.03
2019-05-03T13:53:07.066Z,3.98
2019-05-03T13:58:16.090Z,2.57
2019-05-03T14:03:25.211Z,4.57
2019-05-03T14:08:35.034Z,3.63
2019-05-03T14:13:44.682Z,2.66
2019-05-03T14:18:51.910Z,2.12
2019-05-03T14:24:00.963Z,4.58
2019-05-03T14:29:10.395Z,2.69
2019-05-03T14:34:19.497Z,2.44
2019-05-03T14:39:28.594Z,2.92
2019-05-03T14:44:37.644Z,4.71
2019-05-03T14:49:46.768Z,4.93
2019-05-03T14:54:55.830Z,4.67
2019-05-03T15:00:04.949Z,7.02
2019-05-03T15:05:14.929Z,5.33
2019-05-03T15:10:22.775Z,7.43
2019-05-03T15:15:31.825Z,6.74
2019-05-03T15:20:41.286Z,4.77
2019-05-03T15:25:50.186Z,5.49
2019-05-03T15:30:59.316Z,4.79
2019-05-03T15:36:08.634Z,5.48
2019-05-03T15:41:18.047Z,3.28
2019-05-03T15:46:27.095Z,5.19
2019-05-03T15:51:36.288Z,4.24
2019-05-03T15:56:45.327Z,7.45
2019-05-03T16:01:55.313Z,11.14
2019-05-03T16:07:04.828Z,5.85
2019-05-03T16:12:11.871Z,7.06
2019-05-03T16:17:20.912Z,7.78
2019-05-03T16:22:30.291Z,6.07
2019-05-03T16:27:39.406Z,1.52
2019-05-03T16:32:48.438Z,1.45
2019-05-03T16:37:57.600Z,1.44
2019-05-03T16:43:06.652Z,1.72
2019-05-03T16:48:18.166Z,1.87
2019-05-03T16:53:25.517Z,0.82
2019-05-03T16:58:30.609Z,2.21
2019-05-03T17:03:41.401Z,2.19
2019-05-03T17:08:45.293Z,3.56
2019-05-03T17:13:55.386Z,3.33
2019-05-03T17:19:02.961Z,2.30
2019-05-03T17:24:12.015Z,1.91
2019-05-03T17:29:21.131Z,2.05
2019-05-03T17:34:30.762Z,2.24
2019-05-03T17:39:39.918Z,2.10
2019-05-03T17:44:48.967Z,2.37
2019-05-03T17:49:58.146Z,2.45
2019-05-03T17:55:07.197Z,2.91
2019-05-03T18:00:16.428Z,2.53
2019-05-03T18:05:25.524Z,1.63
2019-05-03T18:10:34.774Z,2.37
2019-05-03T18:15:44.908Z,4.08
2019-05-03T18:20:52.706Z,3.06
2019-05-03T18:26:01.824Z,5.31
2019-05-03T18:31:10.910Z,6.78
2019-05-03T18:36:20.169Z,4.86
2019-05-03T18:41:29.081Z,6.25
2019-05-03T18:46:38.310Z,3.94
2019-05-03T18:51:47.356Z,3.54
2019-05-03T18:56:56.480Z,3.28
2019-05-03T19:02:05.562Z,2.60
2019-05-03T19:07:14.961Z,1.21
2019-05-03T19:12:35.803Z,3.78
2019-05-03T19:17:24.942Z,2.71
2019-05-03T19:22:34.399Z,2.62
2019-05-03T19:27:42.614Z,1.53
2019-05-03T19:32:51.647Z,1.84
2019-05-03T19:38:00.776Z,1.85
2019-05-03T19:43:09.811Z,2.68
2019-05-03T19:48:18.933Z,3.30
2019-05-03T19:53:28.297Z,4.46
2019-05-03T19:58:37.684Z,4.80
2019-05-03T20:03:46.810Z,5.63
2019-05-03T20:08:55.921Z,3.61
2019-05-03T20:14:04.971Z,6.46
2019-05-03T20:19:18.886Z,4.14
2019-05-03T20:24:22.720Z,6.07
2019-05-03T20:29:34.389Z,3.40
2019-05-03T20:34:40.931Z,3.85
2019-05-03T20:39:49.967Z,4.07
2019-05-03T20:44:59.143Z,2.78
2019-05-03T20:50:08.176Z,2.49
2019-05-03T20:55:17.369Z,2.77
2019-05-03T21:00:26.411Z,5.40
2019-05-03T21:05:37.363Z,3.96
2019-05-03T21:10:44.636Z,4.59
2019-05-03T21:15:53.549Z,3.18
2019-05-03T21:21:02.593Z,3.65
2019-05-03T21:26:12.963Z,4.61
2019-05-03T21:31:20.452Z,3.82
2019-05-03T21:36:29.490Z,7.09
2019-05-03T21:41:38.592Z,5.20
2019-05-03T21:46:47.678Z,4.81
2019-05-03T21:51:56.795Z,3.65
2019-05-03T21:57:05.838Z,6.57
2019-05-03T22:02:15.428Z,4.14
2019-05-03T22:07:25.098Z,6.43
2019-05-03T22:12:32.724Z,4.49
2019-05-03T22:17:41.781Z,5.10
2019-05-03T22:22:50.897Z,3.53
2019-05-03T22:28:00.059Z,4.42
2019-05-03T22:33:09.185Z,4.41
2019-05-03T22:38:18.276Z,2.25
2019-05-03T22:43:27.427Z,4.34
2019-05-03T22:48:36.479Z,3.65
2019-05-03T22:53:45.581Z,3.34
2019-05-03T22:58:54.876Z,3.78
2019-05-03T23:04:05.459Z,4.58
2019-05-03T23:09:12.306Z,4.97
2019-05-03T23:14:21.406Z,4.25
2019-05-03T23:19:30.567Z,3.51
2019-05-03T23:24:39.661Z,2.35
2019-05-03T23:29:48.712Z,5.40
2019-05-03T23:34:57.806Z,4.31
2019-05-03T23:40:06.856Z,3.75
2019-05-03T23:45:16.076Z,3.48
2019-05-03T23:50:25.111Z,3.85
2019-05-03T23:55:34.716Z,3.65
